D/T METAR WX W/DIR W/SPE G/SPE TEMP DEWP
15/01/19 20:50 EGNR 152050Z 22013KT 190V250 9999 SCT020 09/06 Q1011 SW (220°) 15.0mph 9°C 6°C
15/01/19 20:20 EGNR 152020Z 23011KT 9999 FEW020 SCT029 09/06 Q1011 SW (230°) 12.7mph 9°C 6°C
15/01/19 19:20 EGNR 151920Z 24012KT 9999 SCT020 09/06 Q1012 WSW (240°) 13.8mph 9°C 6°C
15/01/19 18:20 EGNR 151820Z 25011KT 9999 FEW025 SCT035 10/06 Q1013 WSW (250°) 12.7mph 10°C 6°C
15/01/19 17:50 EGNR 151750Z 25013KT 9999 SCT020 10/06 Q1013 WSW (250°) 15.0mph 10°C 6°C
15/01/19 17:20 EGNR 151720Z 25011KT 9999 SCT020 09/06 Q1013 WSW (250°) 12.7mph 9°C 6°C
15/01/19 16:50 EGNR 151650Z 24011KT 9999 SCT025 09/05 Q1013 WSW (240°) 12.7mph 9°C 5°C
15/01/19 16:20 EGNR 151620Z 25010KT 9999 SCT025 09/05 Q1013 WSW (250°) 11.5mph 9°C 5°C
15/01/19 15:50 EGNR 151550Z VRB05KT 9999 SCT024 09/05 Q1014 N (0°) 5.8mph 9°C 5°C
15/01/19 15:20 EGNR 151520Z 22006KT 190V250 9999 SCT025 SCT035 10/05 Q1014 SW (220°) 6.9mph 10°C 5°C
15/01/19 14:50 EGNR 151450Z VRB01KT 9999 SCT025 SCT035 10/05 Q1014 N (0°) 1.2mph 10°C 5°C
15/01/19 14:20 EGNR 151420Z VRB03KT 9999 BKN025 10/05 Q1015 N (0°) 3.5mph 10°C 5°C
15/01/19 13:50 EGNR 151350Z 24007KT 190V290 9999 BKN026 10/06 Q1015 WSW (240°) 8.1mph 10°C 6°C
15/01/19 13:20 EGNR 151320Z 24004KT 200V300 9999 BKN029 10/05 Q1016 WSW (240°) 4.6mph 10°C 5°C
15/01/19 12:50 EGNR 151250Z 24008KT 9999 SCT033 BKN041 10/04 Q1016 WSW (240°) 9.2mph 10°C 4°C
15/01/19 12:20 EGNR 151220Z 23008KT 9999 FEW016 BKN041 10/05 Q1017 SW (230°) 9.2mph 10°C 5°C
15/01/19 11:50 EGNR 151150Z 22009KT 9999 FEW018 BKN043 10/05 Q1017 SW (220°) 10.4mph 10°C 5°C
15/01/19 11:20 EGNR 151120Z 23009KT 9999 SCT020 BKN045 10/04 Q1017 SW (230°) 10.4mph 10°C 4°C
15/01/19 10:50 EGNR 151050Z 24008KT 9999 SCT020 BKN045 10/05 Q1018 WSW (240°) 9.2mph 10°C 5°C
15/01/19 10:20 EGNR 151020Z 24009KT 9999 FEW015 BKN046 10/05 Q1018 WSW (240°) 10.4mph 10°C 5°C
15/01/19 09:20 EGNR 150920Z 24011KT 9999 FEW015 08/04 Q1018 WSW (240°) 12.7mph 8°C 4°C
15/01/19 08:20 EGNR 150820Z 25014KT 9999 FEW015 09/04 Q1017 WSW (250°) 16.1mph 9°C 4°C
15/01/19 07:50 EGNR 150750Z 24013KT 9999 SCT048 08/04 Q1017 WSW (240°) 15.0mph 8°C 4°C
15/01/19 07:20 EGNR 150720Z 24014KT 9999 SCT048 08/04 Q1017 WSW (240°) 16.1mph 8°C 4°C
15/01/19 06:50 EGNR 150650Z 22010KT 9999 BKN046 09/05 Q1017 SW (220°) 11.5mph 9°C 5°C
15/01/19 06:20 EGNR 150620Z 25010KT 9999 BKN046 09/04 Q1017 WSW (250°) 11.5mph 9°C 4°C
14/01/19 20:50 EGNR 142050Z 24005KT 9999 FEW012 SCT042 07/03 Q1022 WSW (240°) 5.8mph 7°C 3°C
14/01/19 20:20 EGNR 142020Z 21006KT 9999 FEW018 SCT040 04/01 Q1022 SSW (210°) 6.9mph 4°C 1°C
14/01/19 19:50 EGNR 141950Z 21006KT 9999 FEW018 SCT035 05/02 Q1022 SSW (210°) 6.9mph 5°C 2°C
14/01/19 18:50 EGNR 141850Z 25007KT 9999 FEW012 07/03 Q1022 WSW (250°) 8.1mph 7°C 3°C
14/01/19 18:20 EGNR 141820Z 25006KT 230V290 9999 FEW011 08/03 Q1023 WSW (250°) 6.9mph 8°C 3°C
14/01/19 17:50 EGNR 141750Z 29006KT 250V320 9999 FEW012 SCT043 08/03 Q1022 WNW (290°) 6.9mph 8°C 3°C
14/01/19 17:20 EGNR 141720Z 27005KT 240V320 9999 VCSH FEW012 BKN038 08/04 Q1022 VCSH W (270°) 5.8mph 8°C 4°C
14/01/19 16:50 EGNR 141650Z 27007KT 230V300 9999 VCSH FEW012 SCT020 08/04 Q1022 VCSH W (270°) 8.1mph 8°C 4°C
14/01/19 16:20 EGNR 141620Z 29006KT 250V310 9999 VCSH FEW012 SCT020 08/04 Q1022 VCSH WNW (290°) 6.9mph 8°C 4°C
14/01/19 15:50 EGNR 141550Z 30006KT 260V330 9999 VCSH FEW011 BKN039 08/05 Q1022 VCSH WNW (300°) 6.9mph 8°C 5°C
14/01/19 14:50 EGNR 141450Z 29006KT 260V330 9999 FEW014 BKN042 08/04 Q1022 WNW (290°) 6.9mph 8°C 4°C
14/01/19 14:20 EGNR 141420Z 31010KT 9999 FEW012 SCT048 09/04 Q1022 NW (310°) 11.5mph 9°C 4°C
14/01/19 13:20 EGNR 141320Z 32008KT 9999 SCT023CB SCT030 09/04 Q1022 NW (320°) 9.2mph 9°C 4°C
14/01/19 12:50 EGNR 141250Z 32013KT 9999 SCT018 SCT035 09/04 Q1022 NW (320°) 15.0mph 9°C 4°C
14/01/19 12:20 EGNR 141220Z 32013KT 9999 SCT018 SCT032 09/04 Q1022 NW (320°) 15.0mph 9°C 4°C
14/01/19 11:50 EGNR 141150Z 32015KT 9999 FEW018 SCT035 09/04 Q1022 NW (320°) 17.3mph 9°C 4°C
14/01/19 11:20 EGNR 141120Z 32011KT 9999 FEW018 SCT028 10/04 Q1022 NW (320°) 12.7mph 10°C 4°C
14/01/19 10:50 EGNR 141050Z 32011KT 280V340 9999 SCT021 09/03 Q1022 NW (320°) 12.7mph 9°C 3°C
14/01/19 10:20 EGNR 141020Z 32012KT 9999 FEW020 SCT040 09/03 Q1022 NW (320°) 13.8mph 9°C 3°C
14/01/19 09:50 EGNR 140950Z 32012KT 9999 SCT026 SCT044 08/03 Q1022 NW (320°) 13.8mph 8°C 3°C
14/01/19 09:20 EGNR 140920Z 32011KT 9999 FEW026 SCT040 08/03 Q1021 NW (320°) 12.7mph 8°C 3°C
14/01/19 08:50 EGNR 140850Z 32013KT 9999 FEW026 SCT040 08/03 Q1021 NW (320°) 15.0mph 8°C 3°C
14/01/19 07:50 EGNR 140750Z 31008KT 260V340 9999 FEW026 SCT045 08/03 Q1021 NW (310°) 9.2mph 8°C 3°C
14/01/19 07:20 EGNR 140720Z 33013KT 9999 SCT030 SCT048 08/03 Q1020 NNW (330°) 15.0mph 8°C 3°C
14/01/19 06:50 EGNR 140650Z 31014KT 260V330 9999 SCT026 SCT043 08/04 Q1020 NW (310°) 16.1mph 8°C 4°C
14/01/19 06:20 EGNR 140620Z 32016KT 9999 BKN026 08/04 Q1019 NW (320°) 18.4mph 8°C 4°C
13/01/19 18:50 EGNR 131850Z 31021G35KT 9999 VCSH FEW014 SCT049 10/04 Q1014 VCSH NW (310°) 24.2mph 40.3mph 10°C 4°C
13/01/19 18:20 EGNR 131820Z 32016KT 9999 VCSH FEW014 SCT049 09/03 Q1013 VCSH NW (320°) 18.4mph 9°C 3°C
13/01/19 17:50 EGNR 131750Z 31019G32KT 9999 VCSH FEW014 09/03 Q1013 VCSH NW (310°) 21.9mph 36.8mph 9°C 3°C
13/01/19 17:20 EGNR 131720Z 31014G25KT 270V340 9999 VCSH FEW014 SCT049 09/05 Q1013 VCSH NW (310°) 16.1mph 28.8mph 9°C 5°C
13/01/19 16:50 EGNR 131650Z 30015G25KT 250V330 9999 -DZ FEW012 SCT049 10/06 Q1013 -DZ WNW (300°) 17.3mph 28.8mph 10°C 6°C
13/01/19 15:50 EGNR 131550Z 30015G28KT 260V340 9999 VCSH FEW010 SCT048 10/07 Q1012 VCSH WNW (300°) 17.3mph 32.2mph 10°C 7°C
13/01/19 15:20 EGNR 131520Z 28019G31KT 9999 DZ FEW009 SCT048 10/07 Q1012 DZ W (280°) 21.9mph 35.7mph 10°C 7°C
13/01/19 14:20 EGNR 131420Z 29017G29KT 260V320 9999 FEW010 SCT045 11/07 Q1012 WNW (290°) 19.6mph 33.4mph 11°C 7°C
13/01/19 13:50 EGNR 131350Z 29019G33KT 260V330 9999 SCT014 12/07 Q1012 WNW (290°) 21.9mph 38.0mph 12°C 7°C
13/01/19 13:20 EGNR 131320Z 29020G33KT 260V330 9999 SCT019 12/07 Q1012 WNW (290°) 23.0mph 38.0mph 12°C 7°C
13/01/19 12:50 EGNR 131250Z 30019G34KT 260V330 9999 SCT018 12/07 Q1012 WNW (300°) 21.9mph 39.1mph 12°C 7°C
13/01/19 12:20 EGNR 131220Z 31020G33KT 9999 SCT015 SCT020 12/07 Q1012 NW (310°) 23.0mph 38.0mph 12°C 7°C
13/01/19 11:50 EGNR 131150Z 31015G27KT 280V340 9999 SCT018 12/08 Q1012 NW (310°) 17.3mph 31.1mph 12°C 8°C
13/01/19 10:50 EGNR 131050Z 29018G31KT 9999 SCT012 SCT040 11/08 Q1013 WNW (290°) 20.7mph 35.7mph 11°C 8°C
13/01/19 10:20 EGNR 131020Z 29016G33KT 250V320 9999 SCT012 SCT035 11/07 Q1013 WNW (290°) 18.4mph 38.0mph 11°C 7°C
13/01/19 09:50 EGNR 130950Z 29014G24KT 260V330 9999 SCT012 SCT035 11/07 Q1013 WNW (290°) 16.1mph 27.6mph 11°C 7°C
13/01/19 09:20 EGNR 130920Z 29017G28KT 250V320 9999 SCT012 SCT030 11/07 Q1013 WNW (290°) 19.6mph 32.2mph 11°C 7°C
13/01/19 08:50 EGNR 130850Z 29016G27KT 250V330 9999 SCT017 BKN040 11/07 Q1014 WNW (290°) 18.4mph 31.1mph 11°C 7°C
13/01/19 08:20 EGNR 130820Z 30015G30KT 260V330 9999 FEW015 BKN040 11/07 Q1014 WNW (300°) 17.3mph 34.5mph 11°C 7°C
12/01/19 18:50 EGNR 121850Z 29015G27KT 250V330 9999 FEW010 SCT045 12/07 Q1020 WNW (290°) 17.3mph 31.1mph 12°C 7°C
12/01/19 18:20 EGNR 121820Z 29016G26KT 250V330 9999 FEW010 12/07 Q1019 WNW (290°) 18.4mph 29.9mph 12°C 7°C
12/01/19 17:50 EGNR 121750Z 29015G26KT 250V340 9999 FEW011 11/07 Q1019 WNW (290°) 17.3mph 29.9mph 11°C 7°C
12/01/19 17:20 EGNR 121720Z 28016G31KT 240V330 9999 VCSH FEW012 SCT029 11/07 Q1019 VCSH W (280°) 18.4mph 35.7mph 11°C 7°C
12/01/19 16:50 EGNR 121650Z 29014G25KT 240V310 9999 VCSH FEW013 SCT030 11/07 Q1020 VCSH WNW (290°) 16.1mph 28.8mph 11°C 7°C
12/01/19 16:20 EGNR 121620Z 29013KT 250V330 9999 FEW010 BKN030 10/07 Q1020 WNW (290°) 15.0mph 10°C 7°C
12/01/19 15:50 EGNR 121550Z 29014KT 250V330 9999 FEW011 BKN029 10/06 Q1020 WNW (290°) 16.1mph 10°C 6°C
12/01/19 15:20 EGNR 121520Z 29011G22KT 250V340 9999 FEW011 BKN029 10/06 Q1021 WNW (290°) 12.7mph 25.3mph 10°C 6°C
12/01/19 14:50 EGNR 121450Z 29009KT 260V010 9999 FEW011 BKN031 10/06 Q1021 WNW (290°) 10.4mph 10°C 6°C
12/01/19 14:20 EGNR 121420Z 29011KT 230V320 9999 SCT011 BKN047 10/06 Q1021 WNW (290°) 12.7mph 10°C 6°C
12/01/19 13:50 EGNR 121350Z 29013KT 260V320 9999 FEW010 SCT022 BKN049 10/05 Q1021 WNW (290°) 15.0mph 10°C 5°C
12/01/19 13:20 EGNR 121320Z 30012G23KT 260V330 9999 SCT018 SCT035 10/05 Q1022 WNW (300°) 13.8mph 26.5mph 10°C 5°C
12/01/19 12:50 EGNR 121250Z 30013KT 9999 SCT018 SCT040 10/05 Q1022 WNW (300°) 15.0mph 10°C 5°C
12/01/19 12:20 EGNR 121220Z 29014G29KT 260V330 9999 SCT018 SCT030 10/05 Q1022 WNW (290°) 16.1mph 33.4mph 10°C 5°C
12/01/19 11:50 EGNR 121150Z 30014KT 260V340 9999 SCT020 SCT030 10/05 Q1022 WNW (300°) 16.1mph 10°C 5°C
12/01/19 11:20 EGNR 121120Z 29012KT 250V330 9999 FEW018 SCT028 10/05 Q1023 WNW (290°) 13.8mph 10°C 5°C
12/01/19 10:50 EGNR 121050Z 29012G22KT 260V330 9999 SCT016 SCT030 10/05 Q1023 WNW (290°) 13.8mph 25.3mph 10°C 5°C
12/01/19 10:20 EGNR 121020Z 29012KT 250V320 9999 SCT016 SCT030 10/05 Q1023 WNW (290°) 13.8mph 10°C 5°C
12/01/19 09:50 EGNR 120950Z 29012G25KT 260V340 9999 SCT014 SCT030 10/05 Q1022 WNW (290°) 13.8mph 28.8mph 10°C 5°C
12/01/19 09:20 EGNR 120920Z 29012KT 250V350 9999 SCT014 09/06 Q1023 WNW (290°) 13.8mph 9°C 6°C
12/01/19 08:50 EGNR 120850Z 30012G24KT 260V340 9999 SCT014 09/06 Q1023 WNW (300°) 13.8mph 27.6mph 9°C 6°C
12/01/19 08:20 EGNR 120820Z 29011KT 260V330 9999 SCT012 SCT028 10/06 Q1023 WNW (290°) 12.7mph 10°C 6°C
11/01/19 20:50 EGNR 112050Z 28007KT 240V310 9999 FEW029 OVC034 09/06 Q1030 W (280°) 8.1mph 9°C 6°C
11/01/19 19:50 EGNR 111950Z 30007KT 250V340 9999 FEW029 OVC035 09/06 Q1030 WNW (300°) 8.1mph 9°C 6°C
11/01/19 19:20 EGNR 111920Z 29008KT 250V320 9999 FEW025 OVC038 10/05 Q1030 WNW (290°) 9.2mph 10°C 5°C
11/01/19 18:20 EGNR 111820Z 28006KT 230V310 9999 OVC035 10/04 Q1030 W (280°) 6.9mph 10°C 4°C
11/01/19 17:50 EGNR 111750Z 29007KT 9999 OVC035 10/04 Q1030 WNW (290°) 8.1mph 10°C 4°C
11/01/19 17:20 EGNR 111720Z 29007KT 250V310 9999 OVC035 10/04 Q1031 WNW (290°) 8.1mph 10°C 4°C
11/01/19 16:50 EGNR 111650Z 30004KT 220V350 9999 FEW010 OVC035 10/04 Q1031 WNW (300°) 4.6mph 10°C 4°C
11/01/19 16:20 EGNR 111620Z VRB03KT 9999 FEW010 BKN040 09/05 Q1031 N (0°) 3.5mph 9°C 5°C
11/01/19 15:20 EGNR 111520Z 31006KT 280V340 9999 FEW010 BKN036 09/05 Q1031 NW (310°) 6.9mph 9°C 5°C
11/01/19 14:50 EGNR 111450Z 32009KT 9999 FEW010 BKN036 09/04 Q1031 NW (320°) 10.4mph 9°C 4°C
11/01/19 14:20 EGNR 111420Z 32008KT 9999 FEW010 BKN034 09/05 Q1031 NW (320°) 9.2mph 9°C 5°C
11/01/19 13:50 EGNR 111350Z 33007KT 9999 SCT010 BKN037 09/05 Q1031 NNW (330°) 8.1mph 9°C 5°C
11/01/19 13:20 EGNR 111320Z 33007KT 300V360 9999 FEW010 BKN029 09/05 Q1032 NNW (330°) 8.1mph 9°C 5°C
11/01/19 12:50 EGNR 111250Z 33006KT 9999 FEW010 BKN029 08/05 Q1032 NNW (330°) 6.9mph 8°C 5°C
11/01/19 11:50 EGNR 111150Z 34007KT 9999 FEW010 BKN031 08/04 Q1032 NNW (340°) 8.1mph 8°C 4°C
11/01/19 11:20 EGNR 111120Z 34009KT 9999 FEW010 BKN027 08/04 Q1033 NNW (340°) 10.4mph 8°C 4°C
11/01/19 10:50 EGNR 111050Z 32009KT 9999 FEW009 BKN027 08/05 Q1033 NW (320°) 10.4mph 8°C 5°C
11/01/19 10:20 EGNR 111020Z 35008KT 9999 FEW010 BKN028 08/05 Q1033 N (350°) 9.2mph 8°C 5°C
11/01/19 09:50 EGNR 110950Z 33010KT 9999 FEW011 BKN027 08/04 Q1033 NNW (330°) 11.5mph 8°C 4°C
11/01/19 09:20 EGNR 110920Z 32008KT 9999 FEW010 SCT027 BKN032 08/04 Q1032 NW (320°) 9.2mph 8°C 4°C
11/01/19 08:50 EGNR 110850Z 33006KT 9999 FEW009 BKN031 07/05 Q1032 NNW (330°) 6.9mph 7°C 5°C
11/01/19 08:20 EGNR 110820Z 34006KT 9999 VCSH FEW013 BKN031 07/06 Q1032 VCSH NNW (340°) 6.9mph 7°C 6°C
11/01/19 07:50 EGNR 110750Z VRB03KT 9999 VCSH FEW013 BKN031 07/05 Q1032 VCSH N (0°) 3.5mph 7°C 5°C
11/01/19 06:50 EGNR 110650Z 33006KT 9999 FEW023 BKN031 07/06 Q1032 NNW (330°) 6.9mph 7°C 6°C
11/01/19 06:20 EGNR 110620Z 32007KT 9999 FEW023 BKN034 07/06 Q1031 NW (320°) 8.1mph 7°C 6°C
10/01/19 20:50 EGNR 102050Z 34007KT 9999 SCT040 OVC048 07/04 Q1032 NNW (340°) 8.1mph 7°C 4°C
10/01/19 20:20 EGNR 102020Z 32010KT 9999 SCT040 OVC048 08/04 Q1032 NW (320°) 11.5mph 8°C 4°C
10/01/19 19:50 EGNR 101950Z 33006KT 9999 OVC045 08/04 Q1032 NNW (330°) 6.9mph 8°C 4°C
10/01/19 18:50 EGNR 101850Z 33007KT 9999 OVC041 09/05 Q1032 NNW (330°) 8.1mph 9°C 5°C
10/01/19 18:20 EGNR 101820Z 32009KT 9999 SCT042 BKN048 09/05 Q1032 NW (320°) 10.4mph 9°C 5°C
10/01/19 17:50 EGNR 101750Z 32010KT 9000 OVC044 09/05 Q1032 NW (320°) 11.5mph 9°C 5°C
10/01/19 17:20 EGNR 101720Z 32010KT 9000 SCT005 OVC048 09/06 Q1032 NW (320°) 11.5mph 9°C 6°C
10/01/19 16:50 EGNR 101650Z 32008KT 9000 SCT005 OVC045 09/07 Q1032 NW (320°) 9.2mph 9°C 7°C
10/01/19 16:20 EGNR 101620Z 33009KT 8000 BKN005 09/08 Q1032 NNW (330°) 10.4mph 9°C 8°C
10/01/19 15:50 EGNR 101550Z 32012KT 7000 BKN005 09/08 Q1031 NW (320°) 13.8mph 9°C 8°C
10/01/19 15:20 EGNR 101520Z 32011KT 8000 BKN005 09/08 Q1031 NW (320°) 12.7mph 9°C 8°C
10/01/19 14:50 EGNR 101450Z 32010KT 8000 BKN005 09/08 Q1031 NW (320°) 11.5mph 9°C 8°C
10/01/19 14:20 EGNR 101420Z 32008KT 9000 4000N BKN005 09/08 Q1031 NW (320°) 9.2mph 9°C 8°C
10/01/19 13:50 EGNR 101350Z 32009KT 8000 3000N BKN006 09/08 Q1031 NW (320°) 10.4mph 9°C 8°C
10/01/19 13:20 EGNR 101320Z 32010KT 8000 BKN006 09/07 Q1031 NW (320°) 11.5mph 9°C 7°C
10/01/19 12:50 EGNR 101250Z 32011KT 9000 BKN006 09/07 Q1032 NW (320°) 12.7mph 9°C 7°C
10/01/19 12:20 EGNR 101220Z 32011KT 9999 BKN006 08/07 Q1032 NW (320°) 12.7mph 8°C 7°C
10/01/19 11:50 EGNR 101150Z VRB02KT 9999 BKN004 07/06 Q1032 N (0°) 2.3mph 7°C 6°C
10/01/19 11:20 EGNR 101120Z 23002KT 4000 -DZ OVC004 05/04 Q1032 -DZ SW (230°) 2.3mph 5°C 4°C
10/01/19 10:50 EGNR 101050Z 06002KT 4000 VCSH OVC006 06/04 Q1032 VCSH ENE (60°) 2.3mph 6°C 4°C
10/01/19 10:20 EGNR 101020Z VRB01KT 9999 BKN006 05/03 Q1032 N (0°) 1.2mph 5°C 3°C
10/01/19 09:50 EGNR 100950Z VRB01KT 9999 BKN009 04/03 Q1032 N (0°) 1.2mph 4°C 3°C
10/01/19 09:20 EGNR 100920Z 00000KT 9999 BKN011 03/02 Q1032 N (0°) 3°C 2°C
10/01/19 08:50 EGNR 100850Z 22003KT 9999 BKN011 03/01 Q1032 SW (220°) 3.5mph 3°C 1°C
10/01/19 08:20 EGNR 100820Z VRB01KT 9999 BKN012 02/01 Q1032 N (0°) 1.2mph 2°C 1°C
10/01/19 07:50 EGNR 100750Z VRB02KT 9999 BKN011 02/00 Q1032 N (0°) 2.3mph 2°C 0°C